Terminal Aerodrome Forecast
Issued by NWS Cleveland, OH

Home | Current Version | Previous Version | Graphics & Text | Print | Product List | Glossary Off
Versions: 1 2 3 4 5 6 7 8 9 10 11 12 13 14 15 16 17 18 19 20 21 22

000
FTUS41 KCLE 271737
TAFMFD
TAF
KMFD 271737Z 2718/2818 05010KT P6SM BKN035
     FM280600 07010KT P6SM BKN018 OVC025
     FM281000 08010KT P6SM VCSH BKN008 OVC012
     FM281400 08008KT 4SM BR VCSH OVC004=

USA.gov is the U.S. government's official web portal to all federal, state and local government web resources and services.